Flight Track Log - Related Links

Times and Time Zones

All times are in EDT time to prevent confusion due to time zone crossing. See the DAL1903 flight status page for this flight to view local times or setup timezone preferences in your user account.

Time Position Orientation Groundspeed Altitude Reporting Facility
EDT Latitude Longitude Course Direction KTS MPH feet Rate Location/Type
Mon 11:21:35 AM 40.8000 -73.8000 270° West 262 302 8,300  Level New York TRACON
Mon 11:22:35 AM 40.8000 -73.9000 270° West 281 323 10,700 2,166 Climbing New York TRACON
Mon 11:24:00 AM 40.5000 -74.6842 270° West  Level FlightAware Approximate
Mon 11:24:24 AM 40.7872 -74.1175 266° West 344 396 14,400  Level New York Center
Mon 11:25:00 AM 40.4593 -74.8223 246° West  Level FlightAware Approximate
Mon 11:25:24 AM 40.7442 -74.2331 244° Southwest 380 437 15,000  Level New York Center
Mon 11:26:00 AM 40.4167 -74.9606 270° West  Level FlightAware Approximate
Mon 11:26:23 AM 40.6994 -74.3350 240° Southwest 382 440 16,600  Level New York Center
Mon 11:27:23 AM 40.6456 -74.4606 241° Southwest 371 427 17,700 1,300 Climbing New York Center
Mon 11:28:23 AM 40.5942 -74.5753 239° Southwest 371 427 19,200 1,587 Climbing New York Center
Mon 11:29:24 AM 40.5303 -74.6811 232° Southwest 377 434 20,900 1,537 Climbing New York Center
Mon 11:30:24 AM 40.4661 -74.7919 233° Southwest 383 441 22,300 1,576 Climbing New York Center
Mon 11:31:22 AM 40.3956 -74.9025 230° Southwest 393 452 24,000 1,462 Climbing New York Center
Mon 11:32:23 AM 40.3267 -75.0181 232° Southwest 398 458 25,200 1,082 Climbing New York Center
Mon 11:33:24 AM 40.2581 -75.1308 231° Southwest 403 464 26,200 1,059 Climbing New York Center
Mon 11:34:22 AM 40.1914 -75.2381 231° Southwest 415 478 27,300 857 Climbing New York Center
Mon 11:35:23 AM 40.1203 -75.3556 232° Southwest 415 478 27,900 344 Climbing New York Center
Mon 11:36:24 AM 40.0469 -75.4728 231° Southwest 420 483 28,000 50 Climbing New York Center
Mon 11:37:22 AM 39.9756 -75.5872 231° Southwest 420 483 28,000  Level New York Center
Mon 11:39:39 AM 39.8028 -75.8617 231° Southwest 417 480 28,000  Level Washington Center
Mon 11:40:38 AM 39.7256 -75.9772 229° Southwest 422 486 28,000  Level Washington Center
Mon 11:41:38 AM 39.6522 -76.0956 231° Southwest 427 491 28,000  Level Washington Center
Mon 11:42:38 AM 39.5786 -76.2136 231° Southwest 427 491 28,000  Level Washington Center
Mon 11:43:38 AM 39.5050 -76.3258 230° Southwest 427 491 28,000  Level Washington Center
Mon 11:44:38 AM 39.4336 -76.4381 231° Southwest 427 491 28,000  Level Washington Center
Mon 11:45:38 AM 39.3597 -76.5553 231° Southwest 427 491 28,000  Level Washington Center
Mon 11:46:38 AM 39.2858 -76.6694 230° Southwest 427 491 28,000  Level Washington Center
Mon 11:47:38 AM 39.2097 -76.7808 229° Southwest 427 491 28,000  Level Washington Center
Mon 11:48:38 AM 39.1253 -76.8839 223° Southwest 427 491 28,000  Level Washington Center
Mon 11:49:38 AM 39.0389 -76.9814 221° Southwest 422 486 28,000  Level Washington Center
Mon 11:50:38 AM 38.9542 -77.0811 222° Southwest 422 486 28,000  Level Washington Center
Mon 11:51:38 AM 38.8675 -77.1833 223° Southwest 422 486 28,000  Level Washington Center
Mon 11:52:38 AM 38.7806 -77.2800 221° Southwest 422 486 28,000  Level Washington Center
Mon 11:53:38 AM 38.6936 -77.3817 222° Southwest 422 486 28,000  Level Washington Center
Mon 11:54:38 AM 38.6131 -77.4728 221° Southwest 427 491 28,000  Level Washington Center
Mon 11:55:38 AM 38.5239 -77.5739 222° Southwest 427 491 28,000  Level Washington Center
Mon 11:56:39 AM 38.4325 -77.6803 222° Southwest 427 491 28,000  Level Washington Center
Mon 11:57:38 AM 38.3431 -77.7836 222° Southwest 427 491 28,000  Level Washington Center
Mon 11:58:38 AM 38.2514 -77.8842 221° Southwest 432 497 28,000  Level Washington Center
Mon 11:59:38 AM 38.1597 -77.9869 221° Southwest 432 497 28,000  Level Washington Center
Mon 12:00:38 PM 38.0681 -78.0922 222° Southwest 442 509 28,000  Level Washington Center
Mon 12:01:38 PM 37.9803 -78.1919 222° Southwest 442 509 28,000  Level Washington Center
Mon 12:02:38 PM 37.8803 -78.2833 216° Southwest 442 509 28,000  Level Washington Center
Mon 12:03:38 PM 37.7822 -78.3769 217° Southwest 447 514 28,000  Level Washington Center
Mon 12:04:38 PM 37.6842 -78.4706 217° Southwest 447 514 28,000  Level Washington Center
Mon 12:05:38 PM 37.5772 -78.5711 217° Southwest 442 509 28,000  Level Washington Center
Mon 12:06:38 PM 37.4769 -78.6642 216° Southwest 442 509 28,000  Level Washington Center
Mon 12:07:38 PM 37.3808 -78.7544 217° Southwest 442 509 28,000  Level Washington Center
Mon 12:08:39 PM 37.2822 -78.8469 217° Southwest 442 509 28,000  Level Washington Center
Mon 12:09:39 PM 37.1839 -78.9367 216° Southwest 442 509 28,000  Level Washington Center
Mon 12:10:38 PM 37.0981 -79.0161 216° Southwest 442 509 28,000  Level Washington Center
Mon 12:11:39 PM 37.0017 -79.1056 217° Southwest 442 509 28,000  Level Washington Center
Mon 12:12:38 PM 36.9031 -79.1972 217° Southwest 442 509 28,000  Level Washington Center
Mon 12:13:38 PM 36.8083 -79.2861 217° Southwest 442 509 28,000  Level Washington Center
Mon 12:15:15 PM 36.6514 -79.4253 215° Southwest 437 503 28,000  Level Atlanta Center
Mon 12:16:15 PM 36.5467 -79.5217 216° Southwest 437 503 28,000  Level Atlanta Center
Mon 12:17:15 PM 36.4517 -79.6069 216° Southwest 437 503 28,000  Level Atlanta Center
Mon 12:18:15 PM 36.3569 -79.6947 217° Southwest 437 503 28,000  Level Atlanta Center
Mon 12:19:15 PM 36.2597 -79.7825 216° Southwest 437 503 28,000  Level Atlanta Center
Mon 12:20:15 PM 36.1728 -79.8617 216° Southwest 437 503 28,000  Level Atlanta Center
Mon 12:21:15 PM 36.0778 -79.9461 216° Southwest 437 503 28,000  Level Atlanta Center
Mon 12:22:15 PM 35.9694 -80.0158 208° Southwest 437 503 28,000  Level Atlanta Center
Mon 12:23:15 PM 35.8586 -80.0700 202° Southwest 432 497 28,000  Level Atlanta Center
Mon 12:24:15 PM 35.7353 -80.1297 201° Southwest 437 503 28,000  Level Atlanta Center
Mon 12:25:15 PM 35.6225 -80.1911 204° Southwest 437 503 28,000  Level Atlanta Center
Mon 12:26:15 PM 35.5114 -80.2450 202° Southwest 432 497 28,000  Level Atlanta Center
Mon 12:27:15 PM 35.4006 -80.3011 202° Southwest 432 497 28,000  Level Atlanta Center
Mon 12:30:44 PM 35.0233 -80.4894 202° Southwest 433 498 28,000  Level Jacksonville Center
Mon 12:31:43 PM 34.9097 -80.5458 202° Southwest 433 498 28,000  Level Jacksonville Center
Mon 12:32:43 PM 34.7919 -80.6072 203° Southwest 438 504 28,000  Level Jacksonville Center
Mon 12:33:44 PM 34.6783 -80.6633 202° Southwest 438 504 28,000  Level Jacksonville Center
Mon 12:34:43 PM 34.5625 -80.7167 201° Southwest 438 504 28,000  Level Jacksonville Center
Mon 12:35:43 PM 34.4486 -80.7725 202° Southwest 448 516 28,000  Level Jacksonville Center
Mon 12:36:44 PM 34.3367 -80.8156 198° South 448 516 28,000  Level Jacksonville Center
Mon 12:37:43 PM 34.2292 -80.8783 206° Southwest 440 506 28,000  Level Jacksonville Center
Mon 12:38:43 PM 34.1133 -80.9336 202° Southwest 435 501 28,000  Level Jacksonville Center
Mon 12:39:43 PM 33.9972 -80.9889 202° Southwest 435 501 28,000  Level Jacksonville Center
Mon 12:40:44 PM 33.8958 -81.0386 202° Southwest 435 501 28,000  Level Jacksonville Center
Mon 12:41:43 PM 33.7819 -81.0936 202° Southwest 435 501 28,000  Level Jacksonville Center
Mon 12:42:44 PM 33.6575 -81.1583 203° Southwest 440 506 28,000  Level Jacksonville Center
Mon 12:43:43 PM 33.5436 -81.2131 202° Southwest 440 506 28,000  Level Jacksonville Center
Mon 12:44:43 PM 33.4275 -81.2700 202° Southwest 440 506 28,000  Level Jacksonville Center
Mon 12:45:44 PM 33.3133 -81.3242 202° Southwest 440 506 28,000  Level Jacksonville Center
Mon 12:46:43 PM 33.2014 -81.3808 203° Southwest 440 506 28,000  Level Jacksonville Center
Mon 12:47:43 PM 33.0892 -81.4347 202° Southwest 440 506 28,000  Level Jacksonville Center
Mon 12:48:43 PM 32.9769 -81.4886 202° Southwest 440 506 28,000  Level Jacksonville Center
Mon 12:49:43 PM 32.8628 -81.5422 202° Southwest 440 506 28,000  Level Jacksonville Center
Mon 12:50:43 PM 32.7508 -81.6008 204° Southwest 440 506 28,000  Level Jacksonville Center
Mon 12:51:43 PM 32.6364 -81.6542 201° Southwest 440 506 28,000  Level Jacksonville Center
Mon 12:52:43 PM 32.5242 -81.7100 203° Southwest 434 499 28,000  Level Jacksonville Center
Mon 12:53:43 PM 32.4244 -81.7581 202° Southwest 434 499 28,000  Level Jacksonville Center
Mon 12:54:43 PM 32.2978 -81.8186 202° Southwest 439 505 28,000  Level Jacksonville Center
Mon 12:55:43 PM 32.1936 -81.8639 200° South 434 499 28,000  Level Jacksonville Center
Mon 12:56:43 PM 32.0689 -81.9242 202° Southwest 434 499 28,000  Level Jacksonville Center
Mon 12:57:43 PM 31.9544 -81.9792 202° Southwest 434 499 28,000  Level Jacksonville Center
Mon 12:58:43 PM 31.8503 -82.0219 199° South 442 509 28,000  Level Jacksonville Center
Mon 12:59:43 PM 31.7128 -82.0428 187° South 447 514 28,000  Level Jacksonville Center
Mon 01:00:43 PM 31.6022 -82.0583 187° South 447 514 28,000  Level Jacksonville Center
Mon 01:01:43 PM 31.4792 -82.0742 186° South 452 520 28,000  Level Jacksonville Center
Mon 01:02:43 PM 31.3539 -82.0872 185° South 452 520 28,000  Level Jacksonville Center
Mon 01:03:43 PM 31.2286 -82.1006 185° South 452 520 28,000  Level Jacksonville Center
Mon 01:04:43 PM 31.1036 -82.1186 187° South 452 520 28,000  Level Jacksonville Center
Mon 01:05:43 PM 30.9783 -82.1294 184° South 452 520 28,000  Level Jacksonville Center
Mon 01:06:43 PM 30.8531 -82.1447 186° South 457 526 28,000  Level Jacksonville Center
Mon 01:07:43 PM 30.7300 -82.1603 186° South 457 526 28,000  Level Jacksonville Center
Mon 01:08:43 PM 30.6047 -82.1708 184° South 457 526 28,000  Level Jacksonville Center
Mon 01:09:43 PM 30.4775 -82.1814 184° South 462 532 28,000  Level Jacksonville Center
Mon 01:10:43 PM 30.3564 -82.1969 186° South 452 520 28,000  Level Jacksonville Center
Mon 01:11:43 PM 30.2314 -82.2122 186° South 452 520 28,000  Level Jacksonville Center
Mon 01:12:43 PM 30.1061 -82.2250 185° South 452 520 28,000  Level Jacksonville Center
Mon 01:13:43 PM 29.9683 -82.2428 186° South 458 527 28,000 -500 Level Jacksonville Center
Mon 01:14:43 PM 29.8453 -82.2581 186° South 458 527 27,000 -500 Descending Jacksonville Center
Mon 01:15:43 PM 29.7347 -82.2683 185° South 458 527 27,000  Level Jacksonville Center
Mon 01:16:43 PM 29.6094 -82.2594 176° South 452 520 27,000 -450 Level Jacksonville Center
Mon 01:17:43 PM 29.4736 -82.2414 173° South 452 520 26,100 -1,500 Descending Jacksonville Center
Mon 01:18:43 PM 29.3503 -82.2208 172° South 452 520 24,000 -2,250 Descending Jacksonville Center
Mon 01:19:43 PM 29.2314 -82.2025 172° South 445 512 21,600 -2,300 Descending Jacksonville Center
Mon 01:20:43 PM 29.1164 -82.1867 173° South 433 498 19,400 -2,250 Descending Jacksonville Center
Mon 01:21:43 PM 29.0056 -82.1683 172° South 417 480 17,100 -2,250 Descending Jacksonville Center
Mon 01:22:43 PM 28.8992 -82.1503 172° South 400 460 14,900 -1,390 Descending Jacksonville Center
Mon 01:24:40 PM 28.7000 -82.1167 172° South 357 411 13,000 -772 Descending Tampa TRACON
Mon 01:25:34 PM 28.6167 -82.1167 180° South 357 411 12,700 -500 Descending Tampa TRACON
Mon 01:26:40 PM 28.5167 -82.1000 172° South 355 409 12,000 -333 Descending Tampa TRACON
Mon 01:27:40 PM 28.4167 -82.0833 172° South 356 410 12,000  Level Tampa TRACON
Mon 01:28:34 PM 28.3167 -82.0667 172° South 356 410 12,000 50 Level Tampa TRACON
Mon 01:29:40 PM 28.2167 -82.0500 172° South 329 379 12,100  Climbing Tampa TRACON
Mon 01:30:35 PM 28.1333 -82.0333 170° South 335 386 12,000 -522 Descending Tampa TRACON
Mon 01:31:35 PM 28.0500 -82.0500 190° South 319 367 11,100 -950 Descending Tampa TRACON
Mon 01:32:35 PM 27.9667 -82.1000 208° Southwest 292 336 10,100 -1,200 Descending Tampa TRACON
Mon 01:33:35 PM 27.9167 -82.1333 211° Southwest 262 302 8,700 -1,350 Descending Tampa TRACON
Mon 01:34:35 PM 27.8500 -82.1833 214° Southwest 282 325 7,400 -1,250 Descending Tampa TRACON
Mon 01:35:35 PM 27.7667 -82.2167 199° South 277 319 6,200 -650 Descending Tampa TRACON
Mon 01:36:35 PM 27.7000 -82.2667 214° Southwest 267 307 6,100 -150 Descending Tampa TRACON
Mon 01:37:35 PM 27.6333 -82.3000 204° Southwest 268 308 5,900 -250 Descending Tampa TRACON
Mon 01:38:35 PM 27.5667 -82.3333 204° Southwest 268 308 5,600 -800 Descending Tampa TRACON
Mon 01:39:35 PM 27.5000 -82.3667 204° Southwest 267 307 4,300 -1,500 Descending Tampa TRACON
Mon 01:40:35 PM 27.4333 -82.4167 214° Southwest 265 305 2,600 -1,095 Descending Tampa TRACON
Mon 01:41:41 PM 27.3833 -82.4500 211° Southwest 226 260 2,000 -450 Descending Tampa TRACON
Mon 01:42:35 PM 27.3500 -82.4833 222° Southwest 185 213 1,700 -700 Descending Tampa TRACON
Mon 01:43:41 PM 27.3667 -82.5333 291° West 161 185 600 -1,000 Descending Tampa TRACON
Mon 01:45:00 PM 27.3833 -82.5500 160° South  Level FlightAware Approximate

Login

Don't have an account? Register now (free) for customized features, flight alerts, and more!